createdAt,value
2019-03-23T00:00:22.748Z,102346.63
2019-03-23T00:03:10.418Z,102342.58
2019-03-23T00:05:43.910Z,102340.27
2019-03-23T00:08:18.010Z,102346.48
2019-03-23T00:10:51.784Z,102342.02
2019-03-23T00:13:25.478Z,102342.05
2019-03-23T00:16:10.084Z,102339.58
2019-03-23T00:18:44.320Z,102339.40
2019-03-23T00:21:27.731Z,102335.34
2019-03-23T00:24:03.110Z,102338.33
2019-03-23T00:26:40.692Z,102341.77
2019-03-23T00:29:14.388Z,102347.19
2019-03-23T00:31:50.416Z,102346.22
2019-03-23T00:34:25.307Z,102340.16
2019-03-23T00:37:15.377Z,102342.84
2019-03-23T00:40:00.330Z,102347.77
2019-03-23T00:42:33.633Z,102352.83
2019-03-23T00:45:11.240Z,102352.31
2019-03-23T00:47:49.593Z,102353.55
2019-03-23T00:50:25.471Z,102353.55
2019-03-23T00:53:04.325Z,102345.59
2019-03-23T00:55:49.418Z,102346.86
2019-03-23T00:58:28.475Z,102350.75
2019-03-23T01:01:02.237Z,102347.27
2019-03-23T01:03:35.935Z,102350.00
2019-03-23T01:06:18.742Z,102354.33
2019-03-23T01:09:09.636Z,102349.48
2019-03-23T01:12:00.658Z,102362.05
2019-03-23T01:14:46.450Z,102365.05
2019-03-23T01:17:21.583Z,102366.12
2019-03-23T01:19:56.374Z,102374.02
2019-03-23T01:22:31.038Z,102370.14
2019-03-23T01:25:05.616Z,102362.47
2019-03-23T01:27:39.682Z,102366.76
2019-03-23T01:30:22.142Z,102360.40
2019-03-23T01:32:56.242Z,102363.30
2019-03-23T01:35:41.812Z,102362.09
2019-03-23T01:38:15.509Z,102363.14
2019-03-23T01:40:49.596Z,102359.43
2019-03-23T01:43:23.643Z,102364.22
2019-03-23T01:46:14.819Z,102367.66
2019-03-23T01:48:48.828Z,102369.97
2019-03-23T01:51:22.584Z,102375.09
2019-03-23T01:53:59.936Z,102380.62
2019-03-23T01:56:48.636Z,102388.75
2019-03-23T01:59:22.286Z,102388.78
2019-03-23T02:01:56.064Z,102393.45
2019-03-23T02:04:48.030Z,102387.22
2019-03-23T02:07:22.535Z,102393.59
2019-03-23T02:09:56.586Z,102400.67
2019-03-23T02:12:30.555Z,102399.36
2019-03-23T02:15:06.424Z,102403.72
2019-03-23T02:17:55.566Z,102401.03
2019-03-23T02:20:38.115Z,102400.85
2019-03-23T02:23:23.708Z,102406.95
2019-03-23T02:26:07.325Z,102414.33
2019-03-23T02:28:41.212Z,102414.05
2019-03-23T02:31:15.268Z,102419.09
2019-03-23T02:34:06.645Z,102419.84
2019-03-23T02:36:46.870Z,102425.63
2019-03-23T02:39:21.939Z,102419.91
2019-03-23T02:41:56.645Z,102418.27
2019-03-23T02:44:48.033Z,102421.85
2019-03-23T02:47:22.012Z,102426.03
2019-03-23T02:49:55.725Z,102439.58
2019-03-23T02:52:30.253Z,102439.52
2019-03-23T02:55:18.960Z,102445.72
2019-03-23T02:57:52.784Z,102440.84
2019-03-23T03:00:43.891Z,102444.36
2019-03-23T03:03:18.014Z,102457.41
2019-03-23T03:06:02.839Z,102452.45
2019-03-23T03:08:47.831Z,102452.12
2019-03-23T03:11:23.298Z,102460.86
2019-03-23T03:13:57.409Z,102453.65
2019-03-23T03:16:46.951Z,102452.81
2019-03-23T03:19:20.718Z,102452.83
2019-03-23T03:21:55.680Z,102457.87
2019-03-23T03:24:29.967Z,102462.37
2019-03-23T03:27:22.858Z,102464.91
2019-03-23T03:29:57.378Z,102468.09
2019-03-23T03:32:55.114Z,102465.75
2019-03-23T03:35:29.510Z,102478.29
2019-03-23T03:38:03.922Z,102482.16
2019-03-23T03:40:38.112Z,102496.70
2019-03-23T03:43:21.560Z,102500.70
2019-03-23T03:45:56.267Z,102486.67
2019-03-23T03:48:41.748Z,102499.70
2019-03-23T03:51:15.865Z,102496.70
2019-03-23T03:53:59.677Z,102493.34
2019-03-23T03:56:33.444Z,102484.49
2019-03-23T03:59:07.799Z,102487.52
2019-03-23T04:01:51.536Z,102473.79
2019-03-23T04:04:25.576Z,102476.61
2019-03-23T04:07:10.489Z,102478.81
2019-03-23T04:09:54.568Z,102481.48
2019-03-23T04:12:28.816Z,102474.95
2019-03-23T04:15:14.287Z,102482.14
2019-03-23T04:17:57.960Z,102469.45
2019-03-23T04:20:32.217Z,102481.63
2019-03-23T04:23:15.753Z,102473.77
2019-03-23T04:25:49.731Z,102474.95
2019-03-23T04:28:23.828Z,102475.80
2019-03-23T04:31:06.356Z,102476.64
2019-03-23T04:33:40.824Z,102492.02
2019-03-23T04:36:16.012Z,102489.33
2019-03-23T04:38:50.393Z,102492.51
2019-03-23T04:41:35.860Z,102491.16
2019-03-23T04:44:21.864Z,102487.31
2019-03-23T04:46:56.047Z,102493.52
2019-03-23T04:49:30.895Z,102480.47
2019-03-23T04:52:05.658Z,102495.02
2019-03-23T04:54:39.353Z,102496.03
2019-03-23T04:57:13.463Z,102498.03
2019-03-23T04:59:47.477Z,102495.86
2019-03-23T05:02:21.492Z,102490.67
2019-03-23T05:05:12.513Z,102496.02
2019-03-23T05:07:56.522Z,102506.05
2019-03-23T05:10:30.946Z,102510.42
2019-03-23T05:13:15.671Z,102505.38
2019-03-23T05:16:01.169Z,102516.77
2019-03-23T05:18:51.593Z,102512.75
2019-03-23T05:21:25.971Z,102524.64
2019-03-23T05:24:08.696Z,102526.80
2019-03-23T05:26:43.433Z,102535.17
2019-03-23T05:29:17.814Z,102539.19
2019-03-23T05:32:00.669Z,102534.00
2019-03-23T05:34:33.657Z,102541.51
2019-03-23T05:37:07.769Z,102546.73
2019-03-23T05:40:01.010Z,102551.55
2019-03-23T05:42:44.266Z,102553.23
2019-03-23T05:45:18.085Z,102556.73
2019-03-23T05:47:53.003Z,102555.73
2019-03-23T05:50:34.070Z,102570.31
2019-03-23T05:53:22.614Z,102566.62
2019-03-23T05:55:58.658Z,102578.00
2019-03-23T05:58:33.139Z,102578.69
2019-03-23T06:01:16.232Z,102585.69
2019-03-23T06:04:04.693Z,102588.36
2019-03-23T06:06:39.091Z,102584.34
2019-03-23T06:09:43.145Z,102591.73
2019-03-23T06:12:26.126Z,102593.39
2019-03-23T06:15:08.691Z,102600.09
2019-03-23T06:17:51.818Z,102599.23
2019-03-23T06:20:38.936Z,102603.08
2019-03-23T06:23:13.304Z,102598.38
2019-03-23T06:25:47.181Z,102609.42
2019-03-23T06:28:31.871Z,102599.41
2019-03-23T06:31:05.880Z,102608.77
2019-03-23T06:33:39.932Z,102604.59
2019-03-23T06:36:22.492Z,102593.39
2019-03-23T06:39:15.639Z,102595.41
2019-03-23T06:41:49.780Z,102608.45
2019-03-23T06:44:33.182Z,102608.79
2019-03-23T06:47:07.609Z,102611.48
2019-03-23T06:50:03.368Z,102609.13
2019-03-23T06:52:37.118Z,102616.97
2019-03-23T06:55:17.314Z,102614.13
2019-03-23T06:57:51.765Z,102616.31
2019-03-23T07:00:34.415Z,102625.53
2019-03-23T07:03:27.958Z,102629.55
2019-03-23T07:06:04.963Z,102629.86
2019-03-23T07:08:40.095Z,102639.92
2019-03-23T07:11:14.414Z,102632.88
2019-03-23T07:13:52.894Z,102630.03
2019-03-23T07:16:43.232Z,102624.37
2019-03-23T07:19:22.847Z,102625.02
2019-03-23T07:22:08.347Z,102625.52
2019-03-23T07:24:53.360Z,102628.87
2019-03-23T07:27:31.729Z,102629.38
2019-03-23T07:30:07.346Z,102629.69
2019-03-23T07:32:52.987Z,102632.20
2019-03-23T07:35:29.144Z,102640.91
2019-03-23T07:38:16.593Z,102640.91
2019-03-23T07:40:59.132Z,102640.26
2019-03-23T07:43:50.192Z,102632.22
2019-03-23T07:46:34.883Z,102638.57
2019-03-23T07:49:08.631Z,102647.13
2019-03-23T07:51:52.723Z,102643.93
2019-03-23T07:54:42.463Z,102642.75
2019-03-23T07:57:17.424Z,102650.80
2019-03-23T08:00:17.686Z,102647.11
2019-03-23T08:03:17.255Z,102653.63
2019-03-23T08:06:00.188Z,102657.33
2019-03-23T08:08:56.534Z,102651.61
2019-03-23T08:11:41.460Z,102648.92
2019-03-23T08:14:45.230Z,102649.06
2019-03-23T08:17:24.204Z,102643.67
2019-03-23T08:20:01.007Z,102661.63
2019-03-23T08:22:38.500Z,102664.33
2019-03-23T08:25:38.115Z,102657.63
2019-03-23T08:28:23.225Z,102664.31
2019-03-23T08:30:59.579Z,102665.45
2019-03-23T08:33:35.599Z,102669.12
2019-03-23T08:36:19.841Z,102664.34
2019-03-23T08:39:24.424Z,102668.87
2019-03-23T08:45:22.050Z,102667.39
2019-03-23T08:47:56.639Z,102671.25
2019-03-23T08:51:05.479Z,102578.55
2019-03-23T09:00:45.609Z,102677.93
2019-03-23T09:03:31.680Z,102676.18
2019-03-23T09:06:06.001Z,102682.95
2019-03-23T09:08:49.607Z,102682.89
2019-03-23T09:11:24.668Z,102681.76
2019-03-23T09:14:00.865Z,102689.45
2019-03-23T09:16:48.405Z,102691.77
2019-03-23T09:19:23.211Z,102695.13
2019-03-23T09:22:01.807Z,102694.15
2019-03-23T09:24:39.042Z,102693.84
2019-03-23T09:27:15.581Z,102701.56
2019-03-23T09:29:49.599Z,102708.61
2019-03-23T09:32:25.792Z,102707.66
2019-03-23T09:34:59.908Z,102704.55
2019-03-23T09:37:38.279Z,102708.47
2019-03-23T09:40:11.775Z,102706.42
2019-03-23T09:42:47.932Z,102706.61
2019-03-23T09:45:32.557Z,102707.09
2019-03-23T09:48:10.208Z,102707.84
2019-03-23T09:50:46.641Z,102713.94
2019-03-23T09:53:20.782Z,102715.05
2019-03-23T09:55:57.169Z,102710.75
2019-03-23T09:58:32.273Z,102708.67
2019-03-23T10:01:06.303Z,102706.50
2019-03-23T10:04:02.289Z,102695.89
2019-03-23T10:06:36.176Z,102706.06
2019-03-23T10:09:09.850Z,102701.59
2019-03-23T10:12:13.633Z,102707.13
2019-03-23T10:14:46.715Z,102708.45
2019-03-23T10:17:21.475Z,102709.33
2019-03-23T10:19:55.317Z,102715.31
2019-03-23T10:22:38.325Z,102711.03
2019-03-23T10:25:12.447Z,102704.66
2019-03-23T10:27:48.870Z,102708.27
2019-03-23T10:30:26.262Z,102715.19
2019-03-23T10:33:08.273Z,102717.76
2019-03-23T10:35:51.266Z,102712.66
2019-03-23T10:38:33.917Z,102707.53
2019-03-23T10:41:23.224Z,102706.52
2019-03-23T10:44:01.306Z,102704.19
2019-03-23T10:46:35.055Z,102710.88
2019-03-23T10:49:11.741Z,102708.57
2019-03-23T10:51:49.202Z,102718.22
2019-03-23T10:54:27.713Z,102714.45
2019-03-23T10:57:03.784Z,102708.37
2019-03-23T10:59:37.844Z,102715.90
2019-03-23T11:02:13.092Z,102717.61
2019-03-23T11:04:53.847Z,102725.27
2019-03-23T11:07:27.625Z,102722.19
2019-03-23T11:10:07.871Z,102720.96
2019-03-23T11:12:51.853Z,102717.44
2019-03-23T11:15:35.748Z,102714.80
2019-03-23T11:18:09.647Z,102719.67
2019-03-23T11:20:46.578Z,102722.63
2019-03-23T11:23:56.483Z,102722.63
2019-03-23T11:26:40.529Z,102725.70
2019-03-23T11:29:22.165Z,102732.03
2019-03-23T11:31:56.609Z,102728.84
2019-03-23T11:34:41.826Z,102734.01
2019-03-23T11:37:15.925Z,102723.59
2019-03-23T11:39:50.768Z,102739.41
2019-03-23T11:42:24.500Z,102733.89
2019-03-23T11:44:58.289Z,102737.99
2019-03-23T11:47:33.917Z,102733.46
2019-03-23T11:50:16.637Z,102728.59
2019-03-23T11:52:51.817Z,102736.27
2019-03-23T11:55:25.888Z,102735.94
2019-03-23T11:58:17.415Z,102737.97
2019-03-23T12:00:51.505Z,102737.61
2019-03-23T12:03:24.472Z,102736.40
2019-03-23T12:05:59.335Z,102733.52
2019-03-23T12:08:34.835Z,102735.47
2019-03-23T12:11:08.880Z,102736.95
2019-03-23T12:13:42.681Z,102741.42
2019-03-23T12:16:28.828Z,102732.32
2019-03-23T12:19:17.923Z,102733.38
2019-03-23T12:22:01.337Z,102738.19
2019-03-23T12:24:47.123Z,102743.72
2019-03-23T12:27:32.133Z,102735.06
2019-03-23T12:30:13.116Z,102741.08
2019-03-23T12:33:01.938Z,102741.34
2019-03-23T12:35:53.232Z,102753.11
2019-03-23T12:38:38.913Z,102748.84
2019-03-23T12:41:23.242Z,102753.60
2019-03-23T12:44:06.314Z,102761.88
2019-03-23T12:46:48.808Z,102764.92
2019-03-23T12:49:32.147Z,102768.55
2019-03-23T12:52:14.884Z,102772.04
2019-03-23T12:54:48.904Z,102775.09
2019-03-23T12:57:22.891Z,102780.72
2019-03-23T12:59:58.708Z,102786.44
2019-03-23T13:02:47.830Z,102784.22
2019-03-23T13:05:38.049Z,102787.78
2019-03-23T13:08:20.501Z,102785.20
2019-03-23T13:10:54.173Z,102792.09
2019-03-23T13:13:29.598Z,102794.44
2019-03-23T13:16:05.270Z,102793.53
2019-03-23T13:18:40.751Z,102799.89
2019-03-23T13:21:14.761Z,102803.14
2019-03-23T13:23:48.785Z,102797.48
2019-03-23T13:26:35.174Z,102804.39
2019-03-23T13:29:09.709Z,102806.97
2019-03-23T13:31:55.492Z,102803.28
2019-03-23T13:34:29.317Z,102803.73
2019-03-23T13:37:02.784Z,102793.88
2019-03-23T13:39:36.736Z,102798.09
2019-03-23T13:42:22.289Z,102796.11
2019-03-23T13:44:57.347Z,102800.52
2019-03-23T13:47:31.378Z,102804.52
2019-03-23T13:50:25.126Z,102807.23
2019-03-23T13:52:59.744Z,102796.55
2019-03-23T13:55:34.956Z,102798.23
2019-03-23T13:58:15.437Z,102791.11
2019-03-23T14:00:49.550Z,102791.41
2019-03-23T14:03:26.417Z,102797.42
2019-03-23T14:06:01.552Z,102798.39
2019-03-23T14:08:48.326Z,102792.67
2019-03-23T14:11:22.498Z,102797.42
2019-03-23T14:14:11.254Z,102795.97
2019-03-23T14:16:45.627Z,102798.98
2019-03-23T14:19:56.854Z,102799.47
2019-03-23T14:22:31.304Z,102802.94
2019-03-23T14:25:06.693Z,102808.03
2019-03-23T14:27:40.971Z,102803.36
2019-03-23T14:30:39.462Z,102803.30
2019-03-23T14:33:14.987Z,102800.77
2019-03-23T14:36:02.139Z,102801.56
2019-03-23T14:38:49.143Z,102808.80
2019-03-23T14:41:23.454Z,102810.30
2019-03-23T14:43:59.246Z,102807.91
2019-03-23T14:46:45.547Z,102811.88
2019-03-23T14:59:58.551Z,102816.44
2019-03-23T15:02:33.481Z,102820.06
2019-03-23T15:05:12.308Z,102829.35
2019-03-23T15:07:57.386Z,102821.14
2019-03-23T15:10:31.457Z,102816.59
2019-03-23T15:13:05.266Z,102813.66
2019-03-23T15:15:39.914Z,102819.39
2019-03-23T15:18:13.722Z,102827.38
2019-03-23T15:20:47.407Z,102824.97
2019-03-23T15:23:21.483Z,102826.36
2019-03-23T15:26:07.538Z,102826.48
2019-03-23T15:28:42.808Z,102838.17
2019-03-23T15:31:25.633Z,102833.16
2019-03-23T15:34:08.542Z,102836.19
2019-03-23T15:36:52.075Z,102839.00
2019-03-23T15:39:26.937Z,102836.02
2019-03-23T15:42:01.500Z,102836.27
2019-03-23T15:44:35.773Z,102833.86
2019-03-23T15:47:09.763Z,102831.27
2019-03-23T15:49:58.953Z,102836.27
2019-03-23T15:52:42.676Z,102836.31
2019-03-23T15:55:17.048Z,102836.98
2019-03-23T15:57:59.427Z,102838.23
2019-03-23T16:00:34.247Z,102838.52
2019-03-23T16:03:09.206Z,102834.58
2019-03-23T16:05:43.223Z,102837.80
2019-03-23T16:08:18.174Z,102845.94
2019-03-23T16:10:54.101Z,102843.86
2019-03-23T16:13:37.519Z,102848.91
2019-03-23T16:16:12.157Z,102849.72
2019-03-23T16:18:49.111Z,102849.09
2019-03-23T16:21:34.626Z,102846.06
2019-03-23T16:24:08.707Z,102843.80
2019-03-23T16:26:42.440Z,102848.21
2019-03-23T16:29:16.585Z,102847.73
2019-03-23T16:32:05.862Z,102843.47
2019-03-23T16:34:51.547Z,102841.19
2019-03-23T16:37:30.215Z,102845.41
2019-03-23T16:40:05.434Z,102846.72
2019-03-23T16:42:48.303Z,102843.42
2019-03-23T16:45:36.357Z,102843.76
2019-03-23T16:48:19.027Z,102847.41
2019-03-23T16:51:09.794Z,102848.05
2019-03-23T16:53:46.943Z,102851.78
2019-03-23T16:56:21.647Z,102851.35
2019-03-23T16:58:55.724Z,102857.97
2019-03-23T17:01:31.799Z,102864.63
2019-03-23T17:04:14.962Z,102851.06
2019-03-23T17:06:48.795Z,102860.81
2019-03-23T17:09:23.010Z,102865.59
2019-03-23T17:12:05.871Z,102859.02
2019-03-23T17:14:55.326Z,102864.30
2019-03-23T17:17:29.011Z,102875.81
2019-03-23T17:20:03.058Z,102867.63
2019-03-23T17:22:36.884Z,102873.52
2019-03-23T17:25:10.998Z,102874.06
2019-03-23T17:27:53.848Z,102878.45
2019-03-23T17:30:36.896Z,102886.41
2019-03-23T17:33:21.171Z,102885.61
2019-03-23T17:36:03.703Z,102890.86
2019-03-23T17:38:37.931Z,102893.22
2019-03-23T17:41:11.651Z,102894.41
2019-03-23T17:43:45.744Z,102888.55
2019-03-23T17:46:19.449Z,102897.45
2019-03-23T17:48:52.980Z,102892.44
2019-03-23T17:51:26.669Z,102900.33
2019-03-23T17:54:00.529Z,102899.30
2019-03-23T17:56:43.404Z,102906.84
2019-03-23T17:59:32.997Z,102913.07
2019-03-23T18:02:07.999Z,102914.38
2019-03-23T18:04:42.018Z,102921.92
2019-03-23T18:07:25.883Z,102928.63
2019-03-23T18:10:09.118Z,102931.75
2019-03-23T18:12:43.740Z,102934.77
2019-03-23T18:15:26.360Z,102931.74
2019-03-23T18:18:01.183Z,102934.20
2019-03-23T18:20:34.847Z,102935.69
2019-03-23T18:23:08.606Z,102938.00
2019-03-23T18:25:42.264Z,102932.30
2019-03-23T18:28:16.371Z,102930.44
2019-03-23T18:30:58.939Z,102934.64
2019-03-23T18:33:42.145Z,102938.48
2019-03-23T18:36:25.391Z,102936.23
2019-03-23T18:39:00.155Z,102944.87
2019-03-23T18:41:47.172Z,102938.85
2019-03-23T18:44:30.012Z,102939.09
2019-03-23T18:47:12.633Z,102939.34
2019-03-23T18:49:49.281Z,102939.97
2019-03-23T18:52:22.760Z,102947.59
2019-03-23T18:54:57.256Z,102946.61
2019-03-23T18:57:31.505Z,102952.90
2019-03-23T19:00:06.310Z,102958.48
2019-03-23T19:02:40.326Z,102965.97
2019-03-23T19:05:14.212Z,102968.81
2019-03-23T19:08:03.832Z,102967.79
2019-03-23T19:10:37.780Z,102968.52
2019-03-23T19:13:11.945Z,102969.31
2019-03-23T19:15:58.306Z,102969.95
2019-03-23T19:18:37.683Z,102972.31
2019-03-23T19:21:20.353Z,102970.74
2019-03-23T19:23:54.146Z,102976.27
2019-03-23T19:26:36.811Z,102972.53
2019-03-23T19:29:11.120Z,102982.75
2019-03-23T19:31:45.650Z,102975.39
2019-03-23T19:34:28.457Z,102986.44
2019-03-23T19:37:02.527Z,102994.47
2019-03-23T19:39:47.779Z,102996.42
2019-03-23T19:42:30.660Z,102999.14
2019-03-23T19:45:13.145Z,102996.47
2019-03-23T19:47:46.826Z,103001.77
2019-03-23T19:50:29.561Z,102992.19
2019-03-23T19:53:14.022Z,102992.61
2019-03-23T19:55:47.974Z,102992.21
2019-03-23T19:58:39.606Z,102990.17
2019-03-23T20:01:13.636Z,102993.81
2019-03-23T20:03:59.155Z,102991.30
2019-03-23T20:06:48.203Z,102985.75
2019-03-23T20:09:22.811Z,102999.10
2019-03-23T20:12:06.760Z,102999.10
2019-03-23T20:14:42.937Z,102998.90
2019-03-23T20:17:25.724Z,103001.52
2019-03-23T20:20:01.501Z,103003.43
2019-03-23T20:22:35.351Z,103004.25
2019-03-23T20:25:09.762Z,103003.53
2019-03-23T20:27:53.015Z,103002.66
2019-03-23T20:30:27.480Z,103003.20
2019-03-23T20:33:19.034Z,103005.94
2019-03-23T20:36:00.615Z,103008.55
2019-03-23T20:38:35.008Z,103014.89
2019-03-23T20:41:20.713Z,103015.25
2019-03-23T20:44:11.249Z,103005.55
2019-03-23T20:46:56.772Z,103003.23
2019-03-23T20:49:41.248Z,102995.89
2019-03-23T20:52:30.439Z,103000.00
2019-03-23T20:55:04.603Z,102995.75
2019-03-23T20:57:50.343Z,102994.90
2019-03-23T21:00:28.427Z,102997.92
2019-03-23T21:03:03.240Z,103002.67
2019-03-23T21:05:37.753Z,103000.22
2019-03-23T21:08:21.364Z,102997.55
2019-03-23T21:10:55.918Z,102996.92
2019-03-23T21:13:42.127Z,102996.43
2019-03-23T21:16:16.831Z,103002.67
2019-03-23T21:18:50.849Z,103003.88
2019-03-23T21:21:24.751Z,103006.55
2019-03-23T21:23:59.121Z,103008.23
2019-03-23T21:26:32.818Z,103005.14
2019-03-23T21:29:06.587Z,103000.16
2019-03-23T21:31:45.090Z,102994.96
2019-03-23T21:34:21.722Z,102988.22
2019-03-23T21:36:57.206Z,102989.00
2019-03-23T21:39:33.195Z,102984.79
2019-03-23T21:42:18.210Z,102990.35
2019-03-23T21:44:53.012Z,102992.38
2019-03-23T21:47:36.182Z,102991.59
2019-03-23T21:50:19.648Z,102988.50
2019-03-23T21:53:10.548Z,102984.43
2019-03-23T21:55:48.945Z,102992.78
2019-03-23T21:58:23.824Z,102995.52
2019-03-23T22:01:07.378Z,102983.38
2019-03-23T22:03:43.381Z,102988.92
2019-03-23T22:06:17.298Z,102976.92
2019-03-23T22:08:52.028Z,102981.28
2019-03-23T22:11:42.704Z,102981.77
2019-03-23T22:14:17.106Z,102988.23
2019-03-23T22:17:00.590Z,102995.01
2019-03-23T22:19:44.282Z,102987.02
2019-03-23T22:22:18.312Z,102989.79
2019-03-23T22:24:52.656Z,102992.81
2019-03-23T22:27:37.871Z,102983.34
2019-03-23T22:30:20.834Z,102972.42
2019-03-23T22:33:03.646Z,102986.18
2019-03-23T22:35:46.623Z,102979.02
2019-03-23T22:38:30.334Z,102977.33
2019-03-23T22:41:04.429Z,102987.02
2019-03-23T22:43:47.146Z,102980.28
2019-03-23T22:46:34.455Z,102971.13
2019-03-23T22:49:09.761Z,102976.42
2019-03-23T22:51:54.724Z,102975.87
2019-03-23T22:54:41.061Z,102972.10
2019-03-23T22:57:28.008Z,102969.53
2019-03-23T23:00:03.041Z,102969.47
2019-03-23T23:02:43.538Z,102978.27
2019-03-23T23:05:18.163Z,102980.73
2019-03-23T23:07:51.864Z,102978.15
2019-03-23T23:10:25.883Z,102974.80
2019-03-23T23:13:00.632Z,102972.13
2019-03-23T23:15:36.299Z,102971.03
2019-03-23T23:18:09.932Z,102967.70
2019-03-23T23:20:43.863Z,102971.19
2019-03-23T23:23:18.221Z,102973.94
2019-03-23T23:28:50.683Z,102968.31
2019-03-23T23:31:37.289Z,102965.64
2019-03-23T23:34:12.371Z,102961.48
2019-03-23T23:37:02.736Z,102966.01
2019-03-23T23:39:50.247Z,102962.95
2019-03-23T23:42:44.241Z,102961.10
2019-03-23T23:45:18.588Z,102961.45
2019-03-23T23:47:54.002Z,102966.88
2019-03-23T23:50:44.559Z,102967.53
2019-03-23T23:53:19.980Z,102969.09
2019-03-23T23:55:54.686Z,102956.85
2019-03-23T23:58:33.680Z,102949.61
